Terminal Aerodrome Forecast
Issued by NWS Greer, SC

Home | Current Version | Previous Version | Text Only | Print | Product List | Glossary On
Versions: 1 2 3 4 5 6 7 8 9 10 11 12 13 14 15 16 17 18 19 20 21 22 23 24 25 26 27 28 29 30 31 32 33 34 35 36 37 38 39 40 41 42 43 44 45 46 47 48 49 50
000
FTUS42 KGSP 191126
TAFCLT
TAF
KCLT 191126Z 1912/2018 19003KT 3SM BR VCSH OVC004
      TEMPO 1912/1915 1SM BR OVC002
     FM191500 22005KT P6SM VCSH SCT010 OVC025
     FM191600 22007G18KT P6SM BKN050
      TEMPO 1920/1924 4SM TSRA OVC025CB
     FM200000 22005KT P6SM SCT100 BKN250=

USA.gov is the U.S. government's official web portal to all federal, state and local government web resources and services.